sensor_id;sensor_type;location;lat;lon;timestamp;P1;durP1;ratioP1;P2;durP2;ratioP2
67500;SDS011;54349;52.528;19.760;2022-12-20T00:01:53;10.20;;;6.30;;
67500;SDS011;54349;52.528;19.760;2022-12-20T00:04:21;10.70;;;6.40;;
67500;SDS011;54349;52.528;19.760;2022-12-20T00:06:49;11.00;;;6.40;;
67500;SDS011;54349;52.528;19.760;2022-12-20T00:09:17;9.50;;;5.90;;
67500;SDS011;54349;52.528;19.760;2022-12-20T00:11:45;9.30;;;5.90;;
67500;SDS011;54349;52.528;19.760;2022-12-20T00:14:14;10.20;;;5.90;;
67500;SDS011;54349;52.528;19.760;2022-12-20T00:16:42;9.80;;;5.80;;
67500;SDS011;54349;52.528;19.760;2022-12-20T00:19:11;9.60;;;5.80;;
67500;SDS011;54349;52.528;19.760;2022-12-20T00:21:39;9.20;;;5.70;;
67500;SDS011;54349;52.528;19.760;2022-12-20T00:24:09;9.60;;;5.40;;
67500;SDS011;54349;52.528;19.760;2022-12-20T00:26:37;10.40;;;5.90;;
67500;SDS011;54349;52.528;19.760;2022-12-20T00:29:06;10.30;;;5.70;;
67500;SDS011;54349;52.528;19.760;2022-12-20T00:31:34;8.20;;;5.20;;
67500;SDS011;54349;52.528;19.760;2022-12-20T00:34:04;8.80;;;5.40;;
67500;SDS011;54349;52.528;19.760;2022-12-20T00:36:32;8.10;;;5.20;;
67500;SDS011;54349;52.528;19.760;2022-12-20T00:39:01;8.80;;;5.50;;
67500;SDS011;54349;52.528;19.760;2022-12-20T00:41:32;9.50;;;5.50;;
67500;SDS011;54349;52.528;19.760;2022-12-20T00:44:02;8.60;;;5.10;;
67500;SDS011;54349;52.528;19.760;2022-12-20T00:46:31;8.20;;;5.30;;
67500;SDS011;54349;52.528;19.760;2022-12-20T00:49:01;8.60;;;5.20;;
67500;SDS011;54349;52.528;19.760;2022-12-20T00:51:29;9.20;;;5.50;;
67500;SDS011;54349;52.528;19.760;2022-12-20T00:53:59;8.10;;;5.30;;
67500;SDS011;54349;52.528;19.760;2022-12-20T00:56:27;9.10;;;5.20;;
67500;SDS011;54349;52.528;19.760;2022-12-20T00:58:57;8.40;;;5.20;;
67500;SDS011;54349;52.528;19.760;2022-12-20T01:01:29;9.60;;;5.70;;
67500;SDS011;54349;52.528;19.760;2022-12-20T01:04:00;9.00;;;5.50;;
67500;SDS011;54349;52.528;19.760;2022-12-20T01:06:30;9.80;;;5.70;;
67500;SDS011;54349;52.528;19.760;2022-12-20T01:08:59;7.90;;;5.10;;
67500;SDS011;54349;52.528;19.760;2022-12-20T01:11:31;10.10;;;5.80;;
67500;SDS011;54349;52.528;19.760;2022-12-20T01:14:04;8.00;;;4.90;;
67500;SDS011;54349;52.528;19.760;2022-12-20T01:16:38;8.90;;;5.10;;
67500;SDS011;54349;52.528;19.760;2022-12-20T01:19:16;9.40;;;5.10;;
67500;SDS011;54349;52.528;19.760;2022-12-20T01:21:45;8.30;;;4.80;;
67500;SDS011;54349;52.528;19.760;2022-12-20T01:24:16;7.80;;;4.90;;
67500;SDS011;54349;52.528;19.760;2022-12-20T01:26:47;9.00;;;5.10;;
67500;SDS011;54349;52.528;19.760;2022-12-20T01:29:17;10.30;;;5.60;;
67500;SDS011;54349;52.528;19.760;2022-12-20T01:31:46;8.50;;;5.10;;
67500;SDS011;54349;52.528;19.760;2022-12-20T01:34:15;9.10;;;5.30;;
67500;SDS011;54349;52.528;19.760;2022-12-20T01:36:43;7.70;;;5.10;;
67500;SDS011;54349;52.528;19.760;2022-12-20T01:39:13;8.00;;;4.90;;
67500;SDS011;54349;52.528;19.760;2022-12-20T01:41:44;10.20;;;5.50;;
67500;SDS011;54349;52.528;19.760;2022-12-20T01:46:45;8.50;;;5.00;;
67500;SDS011;54349;52.528;19.760;2022-12-20T01:49:22;7.90;;;5.10;;
67500;SDS011;54349;52.528;19.760;2022-12-20T01:54:50;8.60;;;5.20;;
67500;SDS011;54349;52.528;19.760;2022-12-20T02:00:40;8.00;;;4.90;;
67500;SDS011;54349;52.528;19.760;2022-12-20T02:03:11;8.50;;;5.00;;
67500;SDS011;54349;52.528;19.760;2022-12-20T02:05:43;8.70;;;5.20;;
67500;SDS011;54349;52.528;19.760;2022-12-20T02:08:17;8.90;;;4.90;;
67500;SDS011;54349;52.528;19.760;2022-12-20T02:32:03;8.50;;;5.00;;
67500;SDS011;54349;52.528;19.760;2022-12-20T02:34:50;7.80;;;4.40;;
67500;SDS011;54349;52.528;19.760;2022-12-20T02:37:19;9.00;;;5.00;;
67500;SDS011;54349;52.528;19.760;2022-12-20T02:39:47;8.10;;;4.90;;
67500;SDS011;54349;52.528;19.760;2022-12-20T02:42:19;7.80;;;4.60;;
67500;SDS011;54349;52.528;19.760;2022-12-20T02:45:05;8.10;;;4.80;;
67500;SDS011;54349;52.528;19.760;2022-12-20T02:47:52;7.70;;;4.80;;
67500;SDS011;54349;52.528;19.760;2022-12-20T02:50:30;6.90;;;4.60;;
67500;SDS011;54349;52.528;19.760;2022-12-20T02:53:04;7.90;;;4.70;;
67500;SDS011;54349;52.528;19.760;2022-12-20T02:55:45;7.80;;;4.50;;
67500;SDS011;54349;52.528;19.760;2022-12-20T02:59:08;7.80;;;4.80;;
67500;SDS011;54349;52.528;19.760;2022-12-20T03:01:53;7.20;;;4.80;;
67500;SDS011;54349;52.528;19.760;2022-12-20T03:04:29;8.60;;;4.60;;
67500;SDS011;54349;52.528;19.760;2022-12-20T03:06:59;7.80;;;4.60;;
67500;SDS011;54349;52.528;19.760;2022-12-20T03:09:32;7.60;;;4.60;;
67500;SDS011;54349;52.528;19.760;2022-12-20T03:12:02;6.90;;;4.30;;
67500;SDS011;54349;52.528;19.760;2022-12-20T03:14:33;8.60;;;4.60;;
67500;SDS011;54349;52.528;19.760;2022-12-20T03:17:02;7.20;;;4.70;;
67500;SDS011;54349;52.528;19.760;2022-12-20T03:19:31;7.50;;;4.60;;
67500;SDS011;54349;52.528;19.760;2022-12-20T03:22:00;8.00;;;4.80;;
67500;SDS011;54349;52.528;19.760;2022-12-20T03:24:31;7.60;;;4.70;;
67500;SDS011;54349;52.528;19.760;2022-12-20T03:27:02;7.40;;;4.40;;
67500;SDS011;54349;52.528;19.760;2022-12-20T03:29:30;6.80;;;4.30;;
67500;SDS011;54349;52.528;19.760;2022-12-20T03:31:59;7.70;;;4.40;;
67500;SDS011;54349;52.528;19.760;2022-12-20T03:34:27;7.10;;;4.10;;
67500;SDS011;54349;52.528;19.760;2022-12-20T03:36:57;7.20;;;4.40;;
67500;SDS011;54349;52.528;19.760;2022-12-20T03:39:25;6.90;;;4.00;;
67500;SDS011;54349;52.528;19.760;2022-12-20T03:41:53;7.60;;;4.70;;
67500;SDS011;54349;52.528;19.760;2022-12-20T03:44:21;8.80;;;5.10;;
67500;SDS011;54349;52.528;19.760;2022-12-20T03:46:52;8.20;;;4.80;;
67500;SDS011;54349;52.528;19.760;2022-12-20T03:49:20;7.20;;;4.30;;
67500;SDS011;54349;52.528;19.760;2022-12-20T03:51:50;7.50;;;4.50;;
67500;SDS011;54349;52.528;19.760;2022-12-20T03:54:18;6.70;;;4.30;;
67500;SDS011;54349;52.528;19.760;2022-12-20T03:57:07;7.30;;;4.40;;
67500;SDS011;54349;52.528;19.760;2022-12-20T03:59:35;7.40;;;4.50;;
67500;SDS011;54349;52.528;19.760;2022-12-20T04:02:04;7.70;;;4.40;;
67500;SDS011;54349;52.528;19.760;2022-12-20T04:04:33;7.80;;;4.70;;
67500;SDS011;54349;52.528;19.760;2022-12-20T04:07:01;7.80;;;4.30;;
67500;SDS011;54349;52.528;19.760;2022-12-20T04:09:30;8.30;;;4.80;;
67500;SDS011;54349;52.528;19.760;2022-12-20T04:12:04;7.60;;;4.70;;
67500;SDS011;54349;52.528;19.760;2022-12-20T04:14:34;7.50;;;4.40;;
67500;SDS011;54349;52.528;19.760;2022-12-20T04:17:04;6.90;;;4.50;;
67500;SDS011;54349;52.528;19.760;2022-12-20T04:19:32;6.70;;;4.00;;
67500;SDS011;54349;52.528;19.760;2022-12-20T04:22:01;7.90;;;4.40;;
67500;SDS011;54349;52.528;19.760;2022-12-20T04:24:44;7.20;;;4.50;;
67500;SDS011;54349;52.528;19.760;2022-12-20T04:27:19;7.50;;;4.50;;
67500;SDS011;54349;52.528;19.760;2022-12-20T04:29:48;7.70;;;4.60;;
67500;SDS011;54349;52.528;19.760;2022-12-20T04:32:17;8.00;;;4.90;;
67500;SDS011;54349;52.528;19.760;2022-12-20T04:34:46;6.90;;;4.40;;
67500;SDS011;54349;52.528;19.760;2022-12-20T04:37:14;7.20;;;4.20;;
67500;SDS011;54349;52.528;19.760;2022-12-20T04:39:51;7.30;;;4.30;;
67500;SDS011;54349;52.528;19.760;2022-12-20T04:42:24;7.40;;;4.60;;
67500;SDS011;54349;52.528;19.760;2022-12-20T04:44:53;7.80;;;4.70;;
67500;SDS011;54349;52.528;19.760;2022-12-20T04:47:24;7.50;;;4.10;;
67500;SDS011;54349;52.528;19.760;2022-12-20T04:49:52;8.00;;;4.70;;
67500;SDS011;54349;52.528;19.760;2022-12-20T04:52:20;6.90;;;4.30;;
67500;SDS011;54349;52.528;19.760;2022-12-20T04:55:14;7.60;;;4.70;;
67500;SDS011;54349;52.528;19.760;2022-12-20T04:57:43;7.40;;;4.40;;
67500;SDS011;54349;52.528;19.760;2022-12-20T05:00:11;6.60;;;4.10;;
67500;SDS011;54349;52.528;19.760;2022-12-20T05:02:43;7.30;;;4.50;;
67500;SDS011;54349;52.528;19.760;2022-12-20T05:05:14;8.70;;;4.60;;
67500;SDS011;54349;52.528;19.760;2022-12-20T05:07:48;6.40;;;4.00;;
67500;SDS011;54349;52.528;19.760;2022-12-20T05:10:18;7.70;;;4.80;;
67500;SDS011;54349;52.528;19.760;2022-12-20T05:12:47;7.10;;;4.60;;
67500;SDS011;54349;52.528;19.760;2022-12-20T05:15:23;6.90;;;4.30;;
67500;SDS011;54349;52.528;19.760;2022-12-20T05:17:51;7.70;;;4.50;;
67500;SDS011;54349;52.528;19.760;2022-12-20T05:20:31;7.00;;;4.20;;
67500;SDS011;54349;52.528;19.760;2022-12-20T05:23:00;7.00;;;4.20;;
67500;SDS011;54349;52.528;19.760;2022-12-20T05:25:50;6.70;;;4.10;;
67500;SDS011;54349;52.528;19.760;2022-12-20T05:28:39;7.10;;;4.00;;
67500;SDS011;54349;52.528;19.760;2022-12-20T05:31:08;7.30;;;4.50;;
67500;SDS011;54349;52.528;19.760;2022-12-20T05:33:37;8.50;;;4.70;;
67500;SDS011;54349;52.528;19.760;2022-12-20T05:36:05;7.20;;;4.00;;
67500;SDS011;54349;52.528;19.760;2022-12-20T05:38:34;6.50;;;4.50;;
67500;SDS011;54349;52.528;19.760;2022-12-20T05:41:04;7.30;;;4.40;;
67500;SDS011;54349;52.528;19.760;2022-12-20T05:43:33;7.50;;;4.40;;
67500;SDS011;54349;52.528;19.760;2022-12-20T05:46:03;7.20;;;4.40;;
67500;SDS011;54349;52.528;19.760;2022-12-20T05:48:37;6.30;;;4.00;;
67500;SDS011;54349;52.528;19.760;2022-12-20T05:51:06;7.30;;;4.30;;
67500;SDS011;54349;52.528;19.760;2022-12-20T05:53:48;7.50;;;4.60;;
67500;SDS011;54349;52.528;19.760;2022-12-20T05:56:18;7.00;;;4.10;;
67500;SDS011;54349;52.528;19.760;2022-12-20T05:58:46;6.70;;;4.00;;
67500;SDS011;54349;52.528;19.760;2022-12-20T06:01:14;6.90;;;4.40;;
67500;SDS011;54349;52.528;19.760;2022-12-20T06:03:44;7.10;;;4.30;;
67500;SDS011;54349;52.528;19.760;2022-12-20T06:06:16;6.80;;;4.40;;
67500;SDS011;54349;52.528;19.760;2022-12-20T06:08:46;7.40;;;4.70;;
67500;SDS011;54349;52.528;19.760;2022-12-20T06:11:27;7.50;;;4.30;;
67500;SDS011;54349;52.528;19.760;2022-12-20T06:14:06;7.50;;;4.40;;
67500;SDS011;54349;52.528;19.760;2022-12-20T06:16:37;9.10;;;4.50;;
67500;SDS011;54349;52.528;19.760;2022-12-20T06:19:08;8.40;;;4.70;;
67500;SDS011;54349;52.528;19.760;2022-12-20T06:21:44;7.80;;;4.80;;
67500;SDS011;54349;52.528;19.760;2022-12-20T06:24:15;7.30;;;4.60;;
67500;SDS011;54349;52.528;19.760;2022-12-20T06:26:44;6.30;;;4.10;;
67500;SDS011;54349;52.528;19.760;2022-12-20T06:29:14;7.90;;;4.30;;
67500;SDS011;54349;52.528;19.760;2022-12-20T06:31:50;7.50;;;4.20;;
67500;SDS011;54349;52.528;19.760;2022-12-20T06:34:19;7.20;;;4.50;;
67500;SDS011;54349;52.528;19.760;2022-12-20T06:36:49;7.10;;;4.60;;
67500;SDS011;54349;52.528;19.760;2022-12-20T06:39:21;7.90;;;4.50;;
67500;SDS011;54349;52.528;19.760;2022-12-20T06:41:56;6.30;;;3.70;;
67500;SDS011;54349;52.528;19.760;2022-12-20T06:44:25;6.50;;;4.40;;
67500;SDS011;54349;52.528;19.760;2022-12-20T06:46:53;6.80;;;4.10;;
67500;SDS011;54349;52.528;19.760;2022-12-20T06:49:22;6.80;;;4.30;;
67500;SDS011;54349;52.528;19.760;2022-12-20T06:51:51;7.40;;;4.30;;
67500;SDS011;54349;52.528;19.760;2022-12-20T06:54:24;6.70;;;4.10;;
67500;SDS011;54349;52.528;19.760;2022-12-20T06:56:52;6.80;;;4.40;;
67500;SDS011;54349;52.528;19.760;2022-12-20T06:59:20;8.30;;;4.20;;
67500;SDS011;54349;52.528;19.760;2022-12-20T07:01:49;7.20;;;4.50;;
67500;SDS011;54349;52.528;19.760;2022-12-20T07:04:19;6.70;;;4.10;;
67500;SDS011;54349;52.528;19.760;2022-12-20T07:06:48;7.20;;;4.10;;
67500;SDS011;54349;52.528;19.760;2022-12-20T07:09:16;7.00;;;4.20;;
67500;SDS011;54349;52.528;19.760;2022-12-20T07:11:45;7.50;;;4.40;;
67500;SDS011;54349;52.528;19.760;2022-12-20T07:14:13;6.70;;;4.00;;
67500;SDS011;54349;52.528;19.760;2022-12-20T07:16:41;6.70;;;4.40;;
67500;SDS011;54349;52.528;19.760;2022-12-20T07:19:11;8.30;;;4.60;;
67500;SDS011;54349;52.528;19.760;2022-12-20T07:21:42;6.50;;;4.00;;
67500;SDS011;54349;52.528;19.760;2022-12-20T07:24:10;7.20;;;4.40;;
67500;SDS011;54349;52.528;19.760;2022-12-20T07:26:39;7.40;;;4.50;;
67500;SDS011;54349;52.528;19.760;2022-12-20T07:29:08;7.80;;;4.50;;
67500;SDS011;54349;52.528;19.760;2022-12-20T07:31:42;6.50;;;4.10;;
67500;SDS011;54349;52.528;19.760;2022-12-20T07:34:11;6.30;;;4.10;;
67500;SDS011;54349;52.528;19.760;2022-12-20T07:36:39;7.00;;;4.30;;
67500;SDS011;54349;52.528;19.760;2022-12-20T07:39:08;7.70;;;4.70;;
67500;SDS011;54349;52.528;19.760;2022-12-20T07:41:36;7.60;;;4.60;;
67500;SDS011;54349;52.528;19.760;2022-12-20T07:44:04;7.40;;;4.40;;
67500;SDS011;54349;52.528;19.760;2022-12-20T07:46:33;6.80;;;4.20;;
67500;SDS011;54349;52.528;19.760;2022-12-20T07:49:02;6.70;;;4.20;;
67500;SDS011;54349;52.528;19.760;2022-12-20T07:51:34;7.00;;;4.40;;
67500;SDS011;54349;52.528;19.760;2022-12-20T07:54:10;7.00;;;4.40;;
67500;SDS011;54349;52.528;19.760;2022-12-20T07:56:44;8.20;;;4.50;;
67500;SDS011;54349;52.528;19.760;2022-12-20T07:59:18;7.10;;;4.80;;
67500;SDS011;54349;52.528;19.760;2022-12-20T08:01:50;6.90;;;4.00;;
67500;SDS011;54349;52.528;19.760;2022-12-20T08:04:24;7.70;;;4.70;;
67500;SDS011;54349;52.528;19.760;2022-12-20T08:06:55;8.20;;;4.30;;
67500;SDS011;54349;52.528;19.760;2022-12-20T08:09:34;7.00;;;4.30;;
67500;SDS011;54349;52.528;19.760;2022-12-20T08:12:06;6.10;;;4.30;;
67500;SDS011;54349;52.528;19.760;2022-12-20T08:14:37;7.80;;;4.30;;
67500;SDS011;54349;52.528;19.760;2022-12-20T08:17:05;8.40;;;4.50;;
67500;SDS011;54349;52.528;19.760;2022-12-20T08:19:33;7.30;;;4.40;;
67500;SDS011;54349;52.528;19.760;2022-12-20T08:22:01;7.60;;;4.40;;
67500;SDS011;54349;52.528;19.760;2022-12-20T08:24:32;7.10;;;4.50;;
67500;SDS011;54349;52.528;19.760;2022-12-20T08:27:01;7.40;;;4.30;;
67500;SDS011;54349;52.528;19.760;2022-12-20T08:29:29;6.90;;;4.60;;
67500;SDS011;54349;52.528;19.760;2022-12-20T08:31:57;6.90;;;4.20;;
67500;SDS011;54349;52.528;19.760;2022-12-20T08:34:25;7.10;;;4.50;;
67500;SDS011;54349;52.528;19.760;2022-12-20T08:36:54;7.60;;;4.60;;
67500;SDS011;54349;52.528;19.760;2022-12-20T08:39:22;7.30;;;4.70;;
67500;SDS011;54349;52.528;19.760;2022-12-20T08:41:50;7.30;;;4.60;;
67500;SDS011;54349;52.528;19.760;2022-12-20T08:44:18;7.90;;;4.70;;
67500;SDS011;54349;52.528;19.760;2022-12-20T08:46:46;7.90;;;5.00;;
67500;SDS011;54349;52.528;19.760;2022-12-20T08:49:14;7.60;;;4.60;;
67500;SDS011;54349;52.528;19.760;2022-12-20T08:51:42;7.00;;;4.20;;
67500;SDS011;54349;52.528;19.760;2022-12-20T08:54:10;7.40;;;4.60;;
67500;SDS011;54349;52.528;19.760;2022-12-20T08:56:38;7.70;;;4.70;;
67500;SDS011;54349;52.528;19.760;2022-12-20T08:59:07;7.40;;;4.50;;
67500;SDS011;54349;52.528;19.760;2022-12-20T09:01:36;6.50;;;4.10;;
67500;SDS011;54349;52.528;19.760;2022-12-20T09:04:04;7.30;;;4.70;;
67500;SDS011;54349;52.528;19.760;2022-12-20T09:06:33;7.70;;;4.80;;
67500;SDS011;54349;52.528;19.760;2022-12-20T09:09:03;7.10;;;4.50;;
67500;SDS011;54349;52.528;19.760;2022-12-20T09:11:32;6.40;;;4.30;;
67500;SDS011;54349;52.528;19.760;2022-12-20T09:14:01;7.50;;;4.70;;
67500;SDS011;54349;52.528;19.760;2022-12-20T09:16:31;8.30;;;5.00;;
67500;SDS011;54349;52.528;19.760;2022-12-20T09:19:01;6.80;;;4.40;;
67500;SDS011;54349;52.528;19.760;2022-12-20T09:21:33;7.30;;;4.30;;
67500;SDS011;54349;52.528;19.760;2022-12-20T09:24:02;7.40;;;4.80;;
67500;SDS011;54349;52.528;19.760;2022-12-20T09:26:31;7.60;;;4.50;;
67500;SDS011;54349;52.528;19.760;2022-12-20T09:29:02;8.40;;;4.60;;
67500;SDS011;54349;52.528;19.760;2022-12-20T09:31:31;7.20;;;4.60;;
67500;SDS011;54349;52.528;19.760;2022-12-20T09:34:00;7.80;;;4.60;;
67500;SDS011;54349;52.528;19.760;2022-12-20T09:36:29;6.80;;;4.20;;
67500;SDS011;54349;52.528;19.760;2022-12-20T09:38:57;8.50;;;4.50;;
67500;SDS011;54349;52.528;19.760;2022-12-20T09:44:04;7.10;;;4.50;;
67500;SDS011;54349;52.528;19.760;2022-12-20T09:46:40;7.00;;;4.70;;
67500;SDS011;54349;52.528;19.760;2022-12-20T09:49:14;7.70;;;4.80;;
67500;SDS011;54349;52.528;19.760;2022-12-20T10:00:45;7.20;;;4.50;;
67500;SDS011;54349;52.528;19.760;2022-12-20T10:03:32;6.80;;;4.50;;
67500;SDS011;54349;52.528;19.760;2022-12-20T10:06:16;8.40;;;4.60;;
67500;SDS011;54349;52.528;19.760;2022-12-20T10:09:02;7.30;;;4.60;;
67500;SDS011;54349;52.528;19.760;2022-12-20T10:17:01;8.70;;;4.90;;
67500;SDS011;54349;52.528;19.760;2022-12-20T10:25:42;7.10;;;4.40;;
67500;SDS011;54349;52.528;19.760;2022-12-20T10:28:14;8.10;;;5.20;;
67500;SDS011;54349;52.528;19.760;2022-12-20T10:30:43;5.90;;;4.10;;
67500;SDS011;54349;52.528;19.760;2022-12-20T10:33:20;7.50;;;4.90;;
67500;SDS011;54349;52.528;19.760;2022-12-20T10:35:50;9.00;;;4.90;;
67500;SDS011;54349;52.528;19.760;2022-12-20T10:38:19;7.30;;;4.70;;
67500;SDS011;54349;52.528;19.760;2022-12-20T10:43:47;8.10;;;4.80;;
67500;SDS011;54349;52.528;19.760;2022-12-20T10:46:20;8.50;;;5.00;;
67500;SDS011;54349;52.528;19.760;2022-12-20T10:48:49;7.70;;;4.70;;
67500;SDS011;54349;52.528;19.760;2022-12-20T10:51:20;8.10;;;4.90;;
67500;SDS011;54349;52.528;19.760;2022-12-20T10:54:02;7.30;;;4.60;;
67500;SDS011;54349;52.528;19.760;2022-12-20T10:56:55;7.30;;;4.60;;
67500;SDS011;54349;52.528;19.760;2022-12-20T10:59:34;7.90;;;4.90;;
67500;SDS011;54349;52.528;19.760;2022-12-20T11:07:56;7.60;;;4.90;;
67500;SDS011;54349;52.528;19.760;2022-12-20T11:10:47;7.90;;;4.60;;
67500;SDS011;54349;52.528;19.760;2022-12-20T11:13:21;7.60;;;4.80;;
67500;SDS011;54349;52.528;19.760;2022-12-20T11:15:54;8.80;;;4.90;;
67500;SDS011;54349;52.528;19.760;2022-12-20T11:18:46;6.70;;;4.40;;
67500;SDS011;54349;52.528;19.760;2022-12-20T11:21:33;7.20;;;4.70;;
67500;SDS011;54349;52.528;19.760;2022-12-20T11:24:20;7.40;;;4.70;;
67500;SDS011;54349;52.528;19.760;2022-12-20T11:27:15;7.90;;;4.80;;
67500;SDS011;54349;52.528;19.760;2022-12-20T11:47:46;7.80;;;5.00;;
67500;SDS011;54349;52.528;19.760;2022-12-20T11:50:41;8.40;;;5.20;;
67500;SDS011;54349;52.528;19.760;2022-12-20T11:53:42;9.10;;;5.20;;
67500;SDS011;54349;52.528;19.760;2022-12-20T11:56:22;8.50;;;5.00;;
67500;SDS011;54349;52.528;19.760;2022-12-20T12:01:52;7.40;;;5.10;;
67500;SDS011;54349;52.528;19.760;2022-12-20T12:04:35;7.60;;;4.40;;
67500;SDS011;54349;52.528;19.760;2022-12-20T12:07:15;8.30;;;5.00;;
67500;SDS011;54349;52.528;19.760;2022-12-20T12:12:37;8.40;;;5.10;;
67500;SDS011;54349;52.528;19.760;2022-12-20T12:24:06;7.80;;;4.90;;
67500;SDS011;54349;52.528;19.760;2022-12-20T12:26:57;7.80;;;4.80;;
67500;SDS011;54349;52.528;19.760;2022-12-20T12:29:28;8.10;;;5.20;;
67500;SDS011;54349;52.528;19.760;2022-12-20T12:38:09;8.70;;;5.40;;
67500;SDS011;54349;52.528;19.760;2022-12-20T12:46:58;8.70;;;5.20;;
67500;SDS011;54349;52.528;19.760;2022-12-20T12:49:46;9.00;;;5.40;;
67500;SDS011;54349;52.528;19.760;2022-12-20T12:52:33;8.50;;;5.20;;
67500;SDS011;54349;52.528;19.760;2022-12-20T12:55:40;7.60;;;5.00;;
67500;SDS011;54349;52.528;19.760;2022-12-20T13:16:47;8.70;;;5.30;;
67500;SDS011;54349;52.528;19.760;2022-12-20T13:19:37;8.50;;;5.50;;
67500;SDS011;54349;52.528;19.760;2022-12-20T13:22:14;7.60;;;5.00;;
67500;SDS011;54349;52.528;19.760;2022-12-20T13:25:02;9.10;;;5.70;;
67500;SDS011;54349;52.528;19.760;2022-12-20T13:30:47;9.30;;;5.70;;
67500;SDS011;54349;52.528;19.760;2022-12-20T13:33:47;9.40;;;5.70;;
67500;SDS011;54349;52.528;19.760;2022-12-20T13:36:36;8.00;;;5.20;;
67500;SDS011;54349;52.528;19.760;2022-12-20T13:41:52;11.60;;;5.70;;
67500;SDS011;54349;52.528;19.760;2022-12-20T13:44:53;8.90;;;5.70;;
67500;SDS011;54349;52.528;19.760;2022-12-20T13:47:35;8.90;;;5.70;;
67500;SDS011;54349;52.528;19.760;2022-12-20T13:50:25;8.90;;;5.60;;
67500;SDS011;54349;52.528;19.760;2022-12-20T13:52:56;9.20;;;5.50;;
67500;SDS011;54349;52.528;19.760;2022-12-20T13:55:39;8.60;;;5.60;;
67500;SDS011;54349;52.528;19.760;2022-12-20T13:58:21;8.20;;;5.20;;
67500;SDS011;54349;52.528;19.760;2022-12-20T14:01:05;9.00;;;5.30;;
67500;SDS011;54349;52.528;19.760;2022-12-20T14:03:44;8.60;;;5.70;;
67500;SDS011;54349;52.528;19.760;2022-12-20T14:06:17;9.40;;;5.70;;
67500;SDS011;54349;52.528;19.760;2022-12-20T14:08:53;8.90;;;5.70;;
67500;SDS011;54349;52.528;19.760;2022-12-20T14:11:24;8.70;;;5.60;;
67500;SDS011;54349;52.528;19.760;2022-12-20T14:14:01;8.80;;;5.80;;
67500;SDS011;54349;52.528;19.760;2022-12-20T14:16:32;9.10;;;5.40;;
67500;SDS011;54349;52.528;19.760;2022-12-20T14:19:05;10.00;;;5.90;;
67500;SDS011;54349;52.528;19.760;2022-12-20T14:21:43;9.00;;;5.80;;
67500;SDS011;54349;52.528;19.760;2022-12-20T14:24:18;9.80;;;5.80;;
67500;SDS011;54349;52.528;19.760;2022-12-20T14:26:50;8.60;;;5.80;;
67500;SDS011;54349;52.528;19.760;2022-12-20T14:29:27;10.00;;;6.40;;
67500;SDS011;54349;52.528;19.760;2022-12-20T14:31:59;10.70;;;6.20;;
67500;SDS011;54349;52.528;19.760;2022-12-20T14:34:29;9.70;;;5.80;;
67500;SDS011;54349;52.528;19.760;2022-12-20T14:37:33;9.20;;;5.80;;
67500;SDS011;54349;52.528;19.760;2022-12-20T14:42:38;11.00;;;6.40;;
67500;SDS011;54349;52.528;19.760;2022-12-20T14:50:38;9.90;;;6.30;;
67500;SDS011;54349;52.528;19.760;2022-12-20T14:53:20;10.30;;;6.10;;
67500;SDS011;54349;52.528;19.760;2022-12-20T14:55:57;11.80;;;6.90;;
67500;SDS011;54349;52.528;19.760;2022-12-20T14:58:28;11.90;;;6.80;;
67500;SDS011;54349;52.528;19.760;2022-12-20T15:01:23;10.80;;;6.70;;
67500;SDS011;54349;52.528;19.760;2022-12-20T15:03:56;10.90;;;6.70;;
67500;SDS011;54349;52.528;19.760;2022-12-20T15:06:32;10.40;;;6.30;;
67500;SDS011;54349;52.528;19.760;2022-12-20T15:09:04;10.20;;;6.10;;
67500;SDS011;54349;52.528;19.760;2022-12-20T15:11:45;10.00;;;6.50;;
67500;SDS011;54349;52.528;19.760;2022-12-20T15:17:11;12.00;;;6.80;;
67500;SDS011;54349;52.528;19.760;2022-12-20T15:19:41;10.80;;;6.60;;
67500;SDS011;54349;52.528;19.760;2022-12-20T15:22:15;11.30;;;6.80;;
67500;SDS011;54349;52.528;19.760;2022-12-20T15:24:44;10.90;;;7.20;;
67500;SDS011;54349;52.528;19.760;2022-12-20T15:27:13;12.10;;;7.50;;
67500;SDS011;54349;52.528;19.760;2022-12-20T15:29:42;12.00;;;7.20;;
67500;SDS011;54349;52.528;19.760;2022-12-20T15:32:23;12.30;;;7.10;;
67500;SDS011;54349;52.528;19.760;2022-12-20T15:34:56;12.50;;;7.60;;
67500;SDS011;54349;52.528;19.760;2022-12-20T15:37:25;11.40;;;7.20;;
67500;SDS011;54349;52.528;19.760;2022-12-20T15:39:53;10.60;;;6.90;;
67500;SDS011;54349;52.528;19.760;2022-12-20T15:42:22;12.20;;;7.40;;
67500;SDS011;54349;52.528;19.760;2022-12-20T15:44:51;11.60;;;7.20;;
67500;SDS011;54349;52.528;19.760;2022-12-20T15:47:20;13.00;;;7.60;;
67500;SDS011;54349;52.528;19.760;2022-12-20T15:49:48;11.50;;;7.10;;
67500;SDS011;54349;52.528;19.760;2022-12-20T15:52:19;12.50;;;7.60;;
67500;SDS011;54349;52.528;19.760;2022-12-20T15:54:50;13.10;;;8.00;;
67500;SDS011;54349;52.528;19.760;2022-12-20T15:57:18;11.90;;;7.50;;
67500;SDS011;54349;52.528;19.760;2022-12-20T15:59:47;11.80;;;7.40;;
67500;SDS011;54349;52.528;19.760;2022-12-20T16:02:38;14.20;;;8.30;;
67500;SDS011;54349;52.528;19.760;2022-12-20T16:05:10;12.70;;;8.00;;
67500;SDS011;54349;52.528;19.760;2022-12-20T16:07:40;12.40;;;8.00;;
67500;SDS011;54349;52.528;19.760;2022-12-20T16:10:12;11.60;;;7.80;;
67500;SDS011;54349;52.528;19.760;2022-12-20T16:12:42;12.70;;;7.90;;
67500;SDS011;54349;52.528;19.760;2022-12-20T16:15:19;13.70;;;8.30;;
67500;SDS011;54349;52.528;19.760;2022-12-20T16:17:48;11.80;;;7.80;;
67500;SDS011;54349;52.528;19.760;2022-12-20T16:20:17;11.90;;;7.80;;
67500;SDS011;54349;52.528;19.760;2022-12-20T16:22:47;11.80;;;7.60;;
67500;SDS011;54349;52.528;19.760;2022-12-20T16:25:28;12.90;;;7.90;;
67500;SDS011;54349;52.528;19.760;2022-12-20T16:27:58;13.60;;;7.90;;
67500;SDS011;54349;52.528;19.760;2022-12-20T16:30:28;13.20;;;8.70;;
67500;SDS011;54349;52.528;19.760;2022-12-20T16:32:56;13.40;;;7.60;;
67500;SDS011;54349;52.528;19.760;2022-12-20T16:35:32;12.50;;;7.90;;
67500;SDS011;54349;52.528;19.760;2022-12-20T16:38:03;11.80;;;7.80;;
67500;SDS011;54349;52.528;19.760;2022-12-20T16:40:32;12.90;;;7.90;;
67500;SDS011;54349;52.528;19.760;2022-12-20T16:43:00;12.30;;;7.80;;
67500;SDS011;54349;52.528;19.760;2022-12-20T16:45:30;12.20;;;7.80;;
67500;SDS011;54349;52.528;19.760;2022-12-20T16:47:59;13.40;;;8.30;;
67500;SDS011;54349;52.528;19.760;2022-12-20T16:50:28;13.00;;;8.30;;
67500;SDS011;54349;52.528;19.760;2022-12-20T16:52:56;13.80;;;8.30;;
67500;SDS011;54349;52.528;19.760;2022-12-20T16:55:26;14.30;;;8.20;;
67500;SDS011;54349;52.528;19.760;2022-12-20T16:57:55;13.00;;;8.40;;
67500;SDS011;54349;52.528;19.760;2022-12-20T17:00:25;13.50;;;8.10;;
67500;SDS011;54349;52.528;19.760;2022-12-20T17:02:54;12.00;;;7.60;;
67500;SDS011;54349;52.528;19.760;2022-12-20T17:05:32;13.80;;;8.20;;
67500;SDS011;54349;52.528;19.760;2022-12-20T17:08:03;15.00;;;8.30;;
67500;SDS011;54349;52.528;19.760;2022-12-20T17:10:52;11.30;;;7.70;;
67500;SDS011;54349;52.528;19.760;2022-12-20T17:13:20;13.30;;;7.90;;
67500;SDS011;54349;52.528;19.760;2022-12-20T17:15:48;13.60;;;8.30;;
67500;SDS011;54349;52.528;19.760;2022-12-20T17:18:17;12.90;;;7.90;;
67500;SDS011;54349;52.528;19.760;2022-12-20T17:20:45;12.40;;;7.70;;
67500;SDS011;54349;52.528;19.760;2022-12-20T17:23:14;13.30;;;7.60;;
67500;SDS011;54349;52.528;19.760;2022-12-20T17:25:42;13.10;;;7.70;;
67500;SDS011;54349;52.528;19.760;2022-12-20T17:28:18;13.40;;;7.60;;